Time;durP1;ratioP1;P1;durP2;ratioP2;P2;SDS_P1;SDS_P2;PMS_P1;PMS_P2;Temp;Humidity;BMP_temperature;BMP_pressure;BME280_temperature;BME280_humidity;BME280_pressure;Samples;Min_cycle;Max_cycle;Signal;HPM_P1;HPM_P2
2023/04/25 00:02:22;;;;;;;22.60;3.42;;;6.60;99.90;;;;;;4920557;29;20077;-64
2023/04/25 00:04:49;;;;;;;27.52;3.75;;;6.60;99.90;;;;;;4919387;29;20078;-64
2023/04/25 00:07:15;;;;;;;17.88;2.78;;;6.60;99.90;;;;;;4923392;29;20110;-64
2023/04/25 00:09:42;;;;;;;21.33;3.28;;;6.60;99.90;;;;;;4923555;29;20043;-63
2023/04/25 00:12:08;;;;;;;22.65;3.10;;;6.60;99.90;;;;;;4928774;29;20035;-63
2023/04/25 00:14:35;;;;;;;27.95;3.55;;;6.60;99.90;;;;;;4925438;29;20062;-64
2023/04/25 00:17:02;;;;;;;23.70;3.47;;;6.60;99.90;;;;;;4926581;29;20111;-64
2023/04/25 00:19:28;;;;;;;26.98;3.47;;;6.70;99.90;;;;;;4908738;28;20748;-64
2023/04/25 00:21:58;;;;;;;27.80;3.42;;;6.60;99.90;;;;;;4942719;28;20225;-63
2023/04/25 00:24:23;;;;;;;29.33;3.78;;;6.60;99.90;;;;;;4945213;28;20040;-63
2023/04/25 00:26:49;;;;;;;20.92;3.65;;;6.60;99.90;;;;;;4950653;28;20034;-64
2023/04/25 00:29:15;;;;;;;24.90;2.95;;;6.60;99.90;;;;;;4937560;28;20052;-63
2023/04/25 00:31:40;;;;;;;17.95;2.92;;;6.50;99.90;;;;;;4931039;28;20399;-64
2023/04/25 00:34:08;;;;;;;17.38;2.33;;;6.60;99.90;;;;;;4948600;28;20094;-64
2023/04/25 00:36:33;;;;;;;22.75;2.00;;;6.60;99.90;;;;;;4964252;28;20125;-64
2023/04/25 00:38:59;;;;;;;17.85;3.25;;;6.60;99.90;;;;;;4947815;28;20042;-63
2023/04/25 00:41:26;;;;;;;21.33;2.42;;;6.60;99.90;;;;;;4944562;28;20159;-63
2023/04/25 00:43:54;;;;;;;17.67;1.83;;;6.70;99.90;;;;;;4946623;28;20046;-63
2023/04/25 00:46:20;;;;;;;18.15;2.15;;;6.60;99.90;;;;;;4947166;28;20520;-64
2023/04/25 00:48:45;;;;;;;19.30;2.38;;;6.60;99.90;;;;;;4930266;28;20133;-63
2023/04/25 00:51:16;;;;;;;18.10;2.13;;;6.50;99.90;;;;;;4930467;28;20042;-64
2023/04/25 00:53:42;;;;;;;22.73;2.33;;;6.50;99.90;;;;;;4949689;28;20065;-64
2023/04/25 00:56:08;;;;;;;24.42;2.72;;;6.50;99.90;;;;;;4943329;28;20039;-63
2023/04/25 00:58:34;;;;;;;14.45;2.13;;;6.40;99.90;;;;;;4945845;28;20085;-64
2023/04/25 01:01:01;;;;;;;18.92;2.15;;;6.40;99.90;;;;;;4931159;28;20460;-64
2023/04/25 01:03:28;;;;;;;13.60;2.17;;;6.40;99.90;;;;;;4948544;28;20172;-63
2023/04/25 01:05:54;;;;;;;20.83;2.40;;;6.30;99.90;;;;;;4944389;28;20049;-64
2023/04/25 01:08:23;;;;;;;14.65;1.75;;;6.30;99.90;;;;;;4940125;28;20050;-63
2023/04/25 01:10:49;;;;;;;17.55;1.92;;;6.20;99.90;;;;;;4945359;28;20077;-63
2023/04/25 01:13:15;;;;;;;16.00;1.65;;;6.20;99.90;;;;;;4941803;28;20125;-64
2023/04/25 01:15:40;;;;;;;15.95;2.05;;;6.10;99.90;;;;;;4914500;28;20383;-64
2023/04/25 01:18:06;;;;;;;18.85;1.98;;;6.10;99.90;;;;;;4947020;28;20153;-64
2023/04/25 01:20:33;;;;;;;18.63;1.88;;;6.10;99.90;;;;;;4931249;28;20069;-66
2023/04/25 01:23:00;;;;;;;17.13;2.40;;;6.10;99.90;;;;;;4950805;28;20051;-64
2023/04/25 01:25:26;;;;;;;17.63;2.03;;;6.00;99.90;;;;;;4947658;28;20183;-63
2023/04/25 01:27:52;;;;;;;24.20;2.70;;;6.10;99.90;;;;;;4930528;28;20054;-65
2023/04/25 01:30:18;;;;;;;25.42;2.15;;;6.10;99.90;;;;;;4931482;28;20043;-64
2023/04/25 01:32:44;;;;;;;20.45;2.55;;;6.10;99.90;;;;;;4953289;28;20060;-64
2023/04/25 01:35:11;;;;;;;24.23;2.38;;;6.10;99.90;;;;;;4945823;28;20501;-64
2023/04/25 01:37:37;;;;;;;16.85;1.77;;;6.00;99.90;;;;;;4943790;28;20042;-64
2023/04/25 01:40:07;;;;;;;20.25;2.35;;;5.90;99.90;;;;;;4949103;28;20436;-64
2023/04/25 01:42:34;;;;;;;22.50;2.45;;;5.90;99.90;;;;;;4928161;28;20461;-64
2023/04/25 01:45:00;;;;;;;25.70;2.17;;;5.90;99.90;;;;;;4931613;28;20053;-64
2023/04/25 01:47:26;;;;;;;22.80;2.13;;;5.90;99.90;;;;;;4949204;28;20166;-64
2023/04/25 01:49:51;;;;;;;15.25;3.05;;;5.80;99.90;;;;;;4950889;28;20067;-64
2023/04/25 01:52:17;;;;;;;17.67;2.00;;;5.80;99.90;;;;;;4917825;28;20113;-64
2023/04/25 01:54:44;;;;;;;18.67;2.05;;;5.80;99.90;;;;;;4948193;28;20043;-64
2023/04/25 01:57:13;;;;;;;14.20;1.60;;;5.80;99.90;;;;;;4965463;28;20424;-64
2023/04/25 01:59:40;;;;;;;15.15;1.95;;;5.80;99.90;;;;;;4945531;28;20046;-64
2023/04/25 02:02:06;;;;;;;12.50;1.40;;;5.80;99.90;;;;;;4951188;28;20041;-64
2023/04/25 02:04:32;;;;;;;15.63;1.35;;;5.80;99.90;;;;;;4948092;28;20422;-64
2023/04/25 02:06:58;;;;;;;12.88;1.58;;;5.70;99.90;;;;;;4951085;28;20106;-64
2023/04/25 02:09:24;;;;;;;13.68;1.38;;;5.70;99.90;;;;;;4946309;28;20042;-64
2023/04/25 02:11:49;;;;;;;12.80;1.30;;;5.60;99.90;;;;;;4931156;28;20291;-64
2023/04/25 02:14:15;;;;;;;12.48;1.40;;;5.60;99.90;;;;;;4948358;28;20042;-63
2023/04/25 02:16:43;;;;;;;17.42;2.22;;;5.50;99.90;;;;;;4947079;28;20043;-64
2023/04/25 02:19:10;;;;;;;17.40;2.00;;;5.50;99.90;;;;;;4945028;28;20050;-64
2023/04/25 02:21:35;;;;;;;18.98;1.83;;;5.50;99.90;;;;;;4926583;28;20193;-64
2023/04/25 02:24:02;;;;;;;13.52;1.55;;;5.40;99.90;;;;;;4945163;28;20050;-64
2023/04/25 02:26:27;;;;;;;15.77;1.48;;;5.50;99.90;;;;;;4936232;28;20137;-64
2023/04/25 02:28:53;;;;;;;16.70;1.88;;;5.50;99.90;;;;;;4965756;28;20085;-64
2023/04/25 02:31:19;;;;;;;11.02;1.27;;;5.60;99.90;;;;;;4967031;28;20050;-64
2023/04/25 02:33:45;;;;;;;14.15;1.50;;;5.60;99.90;;;;;;4950748;28;20037;-64
2023/04/25 02:36:10;;;;;;;14.77;1.63;;;5.60;99.90;;;;;;4930697;28;20122;-63
2023/04/25 02:38:37;;;;;;;13.15;1.38;;;5.60;99.90;;;;;;4948408;28;20046;-64
2023/04/25 02:41:03;;;;;;;16.15;1.38;;;5.60;99.90;;;;;;4961941;28;20056;-64
2023/04/25 02:43:28;;;;;;;8.15;1.08;;;5.60;99.90;;;;;;4941805;28;20277;-64
2023/04/25 02:45:54;;;;;;;13.70;1.75;;;5.50;99.90;;;;;;4926648;28;20042;-64
2023/04/25 02:48:20;;;;;;;16.20;1.60;;;5.40;99.90;;;;;;4948561;28;20057;-64
2023/04/25 02:50:45;;;;;;;11.70;1.60;;;5.40;99.90;;;;;;4925175;28;20039;-63
2023/04/25 02:53:11;;;;;;;8.57;0.90;;;5.40;99.90;;;;;;4963948;28;20042;-63
2023/04/25 02:55:37;;;;;;;8.70;0.82;;;5.30;99.90;;;;;;4945636;28;20034;-64
2023/04/25 02:58:04;;;;;;;11.65;1.10;;;5.20;99.90;;;;;;4947754;28;20137;-63
2023/04/25 03:00:30;;;;;;;10.60;1.33;;;5.20;99.90;;;;;;4946111;28;20138;-63
2023/04/25 03:02:55;;;;;;;11.38;1.27;;;5.20;99.90;;;;;;4965144;28;20402;-63
2023/04/25 03:05:21;;;;;;;13.07;1.48;;;5.10;99.90;;;;;;4929415;28;20031;-63
2023/04/25 03:07:47;;;;;;;13.05;1.38;;;5.20;99.90;;;;;;4928071;28;20328;-63
2023/04/25 03:10:13;;;;;;;14.32;1.40;;;5.20;99.90;;;;;;4944396;28;20034;-65
2023/04/25 03:12:38;;;;;;;13.15;1.30;;;5.20;99.90;;;;;;4946618;28;20703;-63
2023/04/25 03:15:05;;;;;;;10.98;0.93;;;5.20;99.90;;;;;;4968137;28;20080;-64
2023/04/25 03:17:30;;;;;;;7.32;0.80;;;5.20;99.90;;;;;;4966554;28;20341;-63
2023/04/25 03:19:57;;;;;;;12.63;1.27;;;5.10;99.90;;;;;;4944547;28;20039;-63
2023/04/25 03:22:24;;;;;;;9.05;0.60;;;5.10;99.90;;;;;;4931763;28;20070;-64
2023/04/25 03:24:50;;;;;;;10.90;1.08;;;5.10;99.90;;;;;;4944187;28;20038;-64
2023/04/25 03:27:16;;;;;;;14.75;2.05;;;5.10;99.90;;;;;;4947025;28;20486;-64
2023/04/25 03:29:42;;;;;;;9.43;0.95;;;5.10;99.90;;;;;;4944190;28;20039;-64
2023/04/25 03:32:08;;;;;;;12.25;0.90;;;5.10;99.90;;;;;;4944589;28;20089;-64
2023/04/25 03:34:33;;;;;;;16.35;1.40;;;5.10;99.90;;;;;;4942444;28;20042;-64
2023/04/25 03:36:59;;;;;;;15.05;1.25;;;5.10;99.90;;;;;;4927244;28;20430;-65
2023/04/25 03:39:25;;;;;;;14.40;1.08;;;5.10;99.90;;;;;;4964866;28;20046;-64
2023/04/25 03:41:51;;;;;;;10.27;1.00;;;5.00;99.90;;;;;;4925107;28;20333;-64
2023/04/25 03:44:17;;;;;;;13.65;1.23;;;4.90;99.90;;;;;;4943747;28;20058;-64
2023/04/25 03:46:42;;;;;;;11.27;0.93;;;4.80;99.90;;;;;;4929514;28;20039;-64
2023/04/25 03:49:08;;;;;;;14.80;1.02;;;4.80;99.90;;;;;;4945846;28;20030;-64
2023/04/25 03:51:34;;;;;;;12.15;0.95;;;4.80;99.90;;;;;;4945485;28;20469;-64
2023/04/25 03:54:00;;;;;;;14.95;1.80;;;4.70;99.90;;;;;;4932258;28;20129;-65
2023/04/25 03:56:25;;;;;;;14.88;0.93;;;4.70;99.90;;;;;;4945118;28;20082;-65
2023/04/25 03:58:51;;;;;;;11.52;0.80;;;4.80;99.90;;;;;;4943695;28;20046;-65
2023/04/25 04:01:17;;;;;;;11.18;1.13;;;4.90;99.90;;;;;;4948798;28;20046;-65
2023/04/25 04:03:42;;;;;;;12.95;0.77;;;5.00;99.90;;;;;;4946096;28;20049;-65
2023/04/25 04:06:08;;;;;;;15.40;1.20;;;5.10;99.90;;;;;;4944454;28;20053;-66
2023/04/25 04:08:35;;;;;;;10.23;0.98;;;5.20;99.90;;;;;;4944975;28;20342;-64
2023/04/25 04:11:00;;;;;;;14.93;1.25;;;5.30;99.90;;;;;;4924903;28;20109;-65
2023/04/25 04:13:27;;;;;;;10.68;1.02;;;5.30;99.90;;;;;;4948755;28;20591;-64
2023/04/25 04:15:53;;;;;;;9.05;1.10;;;5.30;99.90;;;;;;4942020;28;20121;-65
2023/04/25 04:18:19;;;;;;;11.13;1.17;;;5.20;99.90;;;;;;4964548;28;20131;-64
2023/04/25 04:20:45;;;;;;;8.63;0.70;;;5.20;99.90;;;;;;4925204;28;20214;-65
2023/04/25 04:23:12;;;;;;;10.43;0.82;;;5.20;99.90;;;;;;4930540;28;20053;-65
2023/04/25 04:25:39;;;;;;;11.45;0.70;;;5.10;99.90;;;;;;4948428;28;20056;-65
2023/04/25 04:28:05;;;;;;;8.82;0.50;;;5.00;99.90;;;;;;4944957;28;20347;-66
2023/04/25 04:30:33;;;;;;;9.05;1.00;;;5.00;99.90;;;;;;4940193;28;20035;-64
2023/04/25 04:32:58;;;;;;;10.40;0.85;;;5.00;99.90;;;;;;4962137;28;20043;-65
2023/04/25 04:35:24;;;;;;;9.93;1.00;;;5.00;99.90;;;;;;4949662;28;20187;-65
2023/04/25 04:37:50;;;;;;;16.48;1.15;;;5.00;99.90;;;;;;4927997;28;20035;-65
2023/04/25 04:40:17;;;;;;;10.40;0.80;;;5.00;99.90;;;;;;4928853;28;20050;-65
2023/04/25 04:42:43;;;;;;;13.43;1.35;;;5.00;99.90;;;;;;4943237;28;20042;-65
2023/04/25 04:45:10;;;;;;;7.93;0.68;;;5.00;99.90;;;;;;4931044;28;20173;-65
2023/04/25 04:47:36;;;;;;;14.07;0.82;;;5.00;99.90;;;;;;4943207;28;20086;-65
2023/04/25 04:50:03;;;;;;;12.07;0.93;;;5.00;99.90;;;;;;4943622;28;20050;-64
2023/04/25 04:52:30;;;;;;;9.75;1.00;;;5.00;99.90;;;;;;4930221;28;20039;-65
2023/04/25 04:54:56;;;;;;;9.63;1.10;;;5.00;99.90;;;;;;4946014;28;20121;-64
2023/04/25 04:57:22;;;;;;;9.85;1.00;;;5.00;99.90;;;;;;4946478;28;20316;-65
2023/04/25 04:59:47;;;;;;;8.23;0.77;;;5.00;99.90;;;;;;4944565;28;20047;-65
2023/04/25 05:02:13;;;;;;;6.30;0.65;;;4.90;99.90;;;;;;4923656;28;20494;-65
2023/04/25 05:04:39;;;;;;;13.48;1.25;;;4.90;99.90;;;;;;4947316;28;20117;-64
2023/04/25 05:07:05;;;;;;;8.90;1.05;;;4.90;99.90;;;;;;4926234;28;20046;-65
2023/04/25 05:09:30;;;;;;;6.10;0.82;;;4.90;99.90;;;;;;4926540;28;20406;-66
2023/04/25 05:11:56;;;;;;;12.25;1.27;;;4.90;99.90;;;;;;4942625;28;20042;-65
2023/04/25 05:14:23;;;;;;;8.93;1.00;;;4.90;99.90;;;;;;4943402;28;20430;-65
2023/04/25 05:16:48;;;;;;;9.63;0.95;;;5.00;99.90;;;;;;4943214;28;20042;-65
2023/04/25 05:19:14;;;;;;;8.15;0.82;;;5.10;99.90;;;;;;4943357;28;20043;-65
2023/04/25 05:21:40;;;;;;;11.68;0.77;;;5.10;99.90;;;;;;4940984;28;20054;-65
2023/04/25 05:24:05;;;;;;;7.70;0.85;;;5.20;99.90;;;;;;4943610;28;20046;-66
2023/04/25 05:26:31;;;;;;;9.95;0.80;;;5.20;99.90;;;;;;4944664;28;20039;-64
2023/04/25 05:28:57;;;;;;;10.15;1.05;;;5.30;99.90;;;;;;4947030;28;20306;-65
2023/04/25 05:31:23;;;;;;;12.07;1.33;;;5.40;99.90;;;;;;4927729;28;20038;-65
2023/04/25 05:33:49;;;;;;;12.82;1.30;;;5.60;99.90;;;;;;4943802;28;20039;-65
2023/04/25 05:36:15;;;;;;;14.13;1.48;;;5.90;99.90;;;;;;4924860;28;20493;-65
2023/04/25 05:38:40;;;;;;;12.68;1.00;;;6.00;99.90;;;;;;4939852;28;20280;-65
2023/04/25 05:41:07;;;;;;;12.82;1.10;;;6.00;99.90;;;;;;4941161;28;20074;-65
2023/04/25 05:43:32;;;;;;;12.80;1.10;;;6.10;99.90;;;;;;4945903;28;20105;-65
2023/04/25 05:45:58;;;;;;;12.68;1.58;;;6.10;99.90;;;;;;4941636;28;20106;-65
2023/04/25 05:48:24;;;;;;;13.02;1.70;;;6.10;99.90;;;;;;4941917;28;20086;-66
2023/04/25 05:50:51;;;;;;;13.27;1.40;;;6.20;99.90;;;;;;4943502;28;20043;-65
2023/04/25 05:53:17;;;;;;;12.15;1.00;;;6.30;99.90;;;;;;4949083;28;20121;-64
2023/04/25 05:55:43;;;;;;;13.80;1.10;;;6.30;99.90;;;;;;4943968;28;20686;-64
2023/04/25 05:58:08;;;;;;;11.30;1.20;;;6.30;99.90;;;;;;4943130;28;20051;-65
2023/04/25 06:00:34;;;;;;;10.32;1.33;;;6.20;1.00;;;;;;4927647;28;20331;-65
2023/04/25 06:03:00;;;;;;;12.02;1.08;;;6.20;64.40;;;;;;4927260;28;20035;-65
2023/04/25 06:05:27;;;;;;;10.60;1.05;;;6.40;99.90;;;;;;4948279;28;20513;-64
2023/04/25 06:07:52;;;;;;;12.25;1.08;;;6.70;92.60;;;;;;4946357;28;20489;-65
2023/04/25 06:10:18;;;;;;;13.07;1.13;;;6.80;51.60;;;;;;4947456;28;21325;-65
2023/04/25 06:12:44;;;;;;;8.40;1.00;;;6.80;79.40;;;;;;4933397;28;20457;-65
2023/04/25 06:15:10;;;;;;;7.00;0.90;;;6.70;99.90;;;;;;4935627;28;20524;-65
2023/04/25 06:17:36;;;;;;;10.07;0.90;;;6.70;99.90;;;;;;4947824;28;20043;-64
2023/04/25 06:20:03;;;;;;;12.13;1.02;;;6.70;99.90;;;;;;4953121;28;20039;-65
2023/04/25 06:22:29;;;;;;;8.38;1.27;;;6.90;99.90;;;;;;4929973;28;20059;-66
2023/04/25 06:24:58;;;;;;;12.00;1.45;;;6.90;99.70;;;;;;4946421;28;20426;-64
2023/04/25 06:27:24;;;;;;;8.85;0.88;;;6.90;80.40;;;;;;4933673;28;20045;-65
2023/04/25 06:29:50;;;;;;;9.02;0.68;;;6.90;23.40;;;;;;4948969;28;20038;-65
2023/04/25 06:32:15;;;;;;;7.90;0.77;;;7.00;99.90;;;;;;4932410;28;20042;-66
2023/04/25 06:34:41;;;;;;;8.00;0.95;;;7.30;99.90;;;;;;4951508;28;20054;-65
2023/04/25 06:37:06;;;;;;;9.43;0.68;;;7.60;1.00;;;;;;4933416;28;20141;-66
2023/04/25 06:39:32;;;;;;;9.43;1.05;;;8.00;99.90;;;;;;4931479;28;20045;-65
2023/04/25 06:41:58;;;;;;;8.20;0.70;;;8.40;99.90;;;;;;4935061;28;20042;-65
2023/04/25 06:44:25;;;;;;;10.63;1.30;;;8.50;99.90;;;;;;4953649;28;20083;-66
2023/04/25 06:46:51;;;;;;;8.77;0.80;;;8.80;99.90;;;;;;4935077;28;20178;-65
2023/04/25 06:49:17;;;;;;;7.30;0.80;;;8.80;99.90;;;;;;4949179;28;20038;-65
2023/04/25 06:51:43;;;;;;;8.73;0.88;;;8.60;99.90;;;;;;4937363;28;20090;-65
2023/04/25 06:54:08;;;;;;;7.72;1.20;;;8.30;99.90;;;;;;4950737;28;20421;-65
2023/04/25 06:56:34;;;;;;;15.82;1.60;;;8.20;1.00;;;;;;4952449;28;20045;-65
2023/04/25 06:59:00;;;;;;;9.82;0.82;;;7.80;63.10;;;;;;4947808;28;20046;-65
2023/04/25 07:01:27;;;;;;;12.32;0.98;;;7.70;95.00;;;;;;4951431;28;20057;-65
2023/04/25 07:03:53;;;;;;;9.93;0.77;;;7.50;99.90;;;;;;4967493;28;20516;-66
2023/04/25 07:06:18;;;;;;;9.10;0.88;;;7.50;99.90;;;;;;4932223;28;20050;-65
2023/04/25 07:08:44;;;;;;;13.93;1.10;;;7.50;99.90;;;;;;4949843;28;20235;-65
2023/04/25 07:11:10;;;;;;;10.05;0.90;;;7.50;99.90;;;;;;4946034;28;20398;-65
2023/04/25 07:13:36;;;;;;;9.20;0.63;;;7.30;99.90;;;;;;4950813;28;20778;-65
2023/04/25 07:16:02;;;;;;;6.68;0.80;;;7.20;99.90;;;;;;4935567;28;20081;-66
2023/04/25 07:18:28;;;;;;;7.40;0.50;;;7.10;99.90;;;;;;4929564;28;20420;-65
2023/04/25 07:20:54;;;;;;;4.72;0.30;;;7.20;99.90;;;;;;4911777;28;20054;-65
2023/04/25 07:23:21;;;;;;;5.97;0.50;;;6.90;99.90;;;;;;4953394;28;20073;-65
2023/04/25 07:25:47;;;;;;;4.63;0.50;;;6.80;99.90;;;;;;4943963;28;20114;-65
2023/04/25 07:28:12;;;;;;;10.02;0.80;;;6.80;99.90;;;;;;4946678;28;20038;-65
2023/04/25 07:30:38;;;;;;;7.03;0.50;;;6.90;99.90;;;;;;4929045;28;20129;-65
2023/04/25 07:33:04;;;;;;;8.25;0.57;;;6.90;99.90;;;;;;4910677;28;20035;-65
2023/04/25 07:35:29;;;;;;;8.98;0.73;;;7.20;99.90;;;;;;4927469;28;20037;-65
2023/04/25 07:37:55;;;;;;;7.72;0.80;;;7.60;99.90;;;;;;4946066;28;20038;-65
2023/04/25 07:40:21;;;;;;;8.88;0.77;;;8.20;99.90;;;;;;4947873;28;20049;-65
2023/04/25 07:42:47;;;;;;;9.70;0.80;;;8.40;1.00;;;;;;4947612;28;20097;-65
2023/04/25 07:45:13;;;;;;;9.13;0.90;;;8.80;1.00;;;;;;4928730;28;20515;-65
2023/04/25 07:47:38;;;;;;;12.40;0.60;;;8.80;99.90;;;;;;4949189;28;20057;-66
2023/04/25 07:50:05;;;;;;;10.00;1.00;;;8.70;99.90;;;;;;4930012;28;20041;-65
2023/04/25 07:52:31;;;;;;;6.18;0.52;;;9.20;99.90;;;;;;4943919;28;20426;-66
2023/04/25 07:54:58;;;;;;;9.32;0.65;;;9.40;99.90;;;;;;4940716;28;20113;-65
2023/04/25 07:57:24;;;;;;;9.57;0.75;;;9.80;99.90;;;;;;4932084;28;20038;-65
2023/04/25 07:59:50;;;;;;;8.40;0.80;;;9.40;99.90;;;;;;4934139;28;20034;-65
2023/04/25 08:02:15;;;;;;;12.80;1.10;;;9.40;99.90;;;;;;4930991;28;20117;-65
2023/04/25 08:04:41;;;;;;;8.48;1.05;;;9.30;99.90;;;;;;4949686;28;20112;-66
2023/04/25 08:07:07;;;;;;;7.93;0.68;;;9.10;99.90;;;;;;4954067;28;20747;-65
2023/04/25 08:09:36;;;;;;;7.18;0.90;;;9.10;99.90;;;;;;4933451;28;20038;-65
2023/04/25 08:12:03;;;;;;;8.27;0.70;;;8.70;99.90;;;;;;4936446;28;20042;-66
2023/04/25 08:14:35;;;;;;;10.68;0.90;;;8.80;99.90;;;;;;4909483;28;20685;-66
2023/04/25 08:17:01;;;;;;;8.63;0.80;;;9.70;99.90;;;;;;4938153;28;20038;-65
2023/04/25 08:19:27;;;;;;;9.13;0.82;;;10.10;99.90;;;;;;4927042;28;20450;-65
2023/04/25 08:21:55;;;;;;;13.93;1.00;;;10.30;99.90;;;;;;4944891;28;20634;-65
2023/04/25 08:24:21;;;;;;;7.88;0.60;;;10.40;99.90;;;;;;4945774;28;20073;-65
2023/04/25 08:26:46;;;;;;;12.38;1.10;;;10.20;99.90;;;;;;4931702;28;20173;-65
2023/04/25 08:29:12;;;;;;;8.38;0.90;;;10.20;99.90;;;;;;4948982;28;20455;-65
2023/04/25 08:31:38;;;;;;;6.63;0.57;;;10.30;99.90;;;;;;4928839;28;20038;-64
2023/04/25 08:34:04;;;;;;;11.13;0.90;;;10.20;99.90;;;;;;4926535;28;20195;-64
2023/04/25 08:36:29;;;;;;;13.15;0.90;;;10.00;99.90;;;;;;4939599;28;20081;-64
2023/04/25 08:38:55;;;;;;;9.23;0.75;;;10.50;99.90;;;;;;4935406;28;20092;-64
2023/04/25 08:41:22;;;;;;;6.35;0.60;;;10.60;99.90;;;;;;4944495;28;20042;-64
2023/04/25 08:43:48;;;;;;;10.35;0.70;;;10.40;99.90;;;;;;4929138;28;20088;-64
2023/04/25 08:46:19;;;;;;;8.63;0.85;;;10.80;99.90;;;;;;4938887;28;20121;-64
2023/04/25 08:48:46;;;;;;;6.05;0.55;;;10.40;99.90;;;;;;4939349;28;20046;-64
2023/04/25 08:51:22;;;;;;;5.72;0.68;;;10.60;99.90;;;;;;4923307;28;20039;-64
2023/04/25 08:53:50;;;;;;;5.28;0.70;;;11.10;99.90;;;;;;4926812;28;20359;-64
2023/04/25 08:56:22;;;;;;;6.28;0.88;;;10.60;99.90;;;;;;4944745;28;20053;-64
2023/04/25 08:58:51;;;;;;;7.72;0.60;;;10.80;99.90;;;;;;4921492;28;20263;-65
2023/04/25 09:01:18;;;;;;;13.52;1.00;;;11.40;99.90;;;;;;4927577;28;20290;-64
2023/04/25 09:03:46;;;;;;;8.93;0.80;;;10.10;99.90;;;;;;4945659;28;20311;-64
2023/04/25 09:06:13;;;;;;;8.07;0.90;;;10.20;99.90;;;;;;4929515;28;20244;-64
2023/04/25 09:08:40;;;;;;;10.60;0.90;;;10.10;99.90;;;;;;4930737;28;20038;-65
2023/04/25 09:11:07;;;;;;;7.85;0.93;;;9.70;99.90;;;;;;4924034;28;20066;-64
2023/04/25 09:13:33;;;;;;;9.05;0.93;;;9.30;99.90;;;;;;4943692;28;20324;-64
2023/04/25 09:15:59;;;;;;;10.93;0.70;;;9.60;99.90;;;;;;4939515;28;20311;-64
2023/04/25 09:18:29;;;;;;;11.80;1.00;;;9.60;99.90;;;;;;4925959;28;20288;-64
2023/04/25 09:21:09;;;;;;;9.98;1.15;;;9.10;99.90;;;;;;4923702;28;20090;-64
2023/04/25 09:23:46;;;;;;;11.27;0.98;;;8.70;99.90;;;;;;4938425;28;20054;-64
2023/04/25 09:26:16;;;;;;;11.13;1.38;;;8.50;1.00;;;;;;4927881;28;20287;-64
2023/04/25 09:28:42;;;;;;;12.88;1.08;;;8.20;99.90;;;;;;4943794;28;20074;-66
2023/04/25 09:31:11;;;;;;;11.20;0.93;;;9.00;1.00;;;;;;4923458;28;20494;-63
2023/04/25 09:33:37;;;;;;;13.93;1.00;;;9.40;99.90;;;;;;4944144;28;20074;-64
2023/04/25 09:36:13;;;;;;;9.40;0.98;;;9.30;99.90;;;;;;4943685;28;20117;-64
2023/04/25 09:38:44;;;;;;;7.82;0.60;;;9.40;99.90;;;;;;4934149;28;20149;-64
2023/04/25 09:41:11;;;;;;;8.98;0.57;;;9.60;99.90;;;;;;4943376;28;20046;-64
2023/04/25 09:43:38;;;;;;;7.05;0.50;;;9.70;99.90;;;;;;4962138;28;20481;-64
2023/04/25 09:46:09;;;;;;;6.53;0.43;;;9.80;99.90;;;;;;4946134;28;20775;-64
2023/04/25 09:48:35;;;;;;;6.95;0.60;;;10.10;99.90;;;;;;4926991;28;20035;-64
2023/04/25 09:51:13;;;;;;;9.40;0.70;;;10.50;99.90;;;;;;4962282;28;20218;-64
2023/04/25 09:53:41;;;;;;;9.35;0.60;;;10.90;99.90;;;;;;4945588;28;20130;-64
2023/04/25 09:56:08;;;;;;;6.18;0.60;;;10.60;99.90;;;;;;4943458;28;20050;-65
2023/04/25 09:58:35;;;;;;;6.88;0.77;;;10.80;99.90;;;;;;4946130;28;20073;-64
2023/04/25 10:01:07;;;;;;;9.00;0.73;;;10.60;99.90;;;;;;4942359;28;20089;-64
2023/04/25 10:03:35;;;;;;;9.13;0.98;;;10.50;99.90;;;;;;4945797;28;20417;-64
2023/04/25 10:06:19;;;;;;;7.95;0.95;;;10.50;99.90;;;;;;4943319;28;20051;-64
2023/04/25 10:08:46;;;;;;;10.68;0.90;;;11.20;99.90;;;;;;4939666;28;20045;-64
2023/04/25 10:11:15;;;;;;;8.88;0.77;;;11.00;99.90;;;;;;4930930;28;20035;-63
2023/04/25 10:13:42;;;;;;;6.97;0.68;;;10.90;99.90;;;;;;4949663;28;20043;-64
2023/04/25 10:16:08;;;;;;;10.75;0.60;;;11.10;99.90;;;;;;4926550;28;20041;-64
2023/04/25 10:18:34;;;;;;;6.55;0.88;;;11.50;99.90;;;;;;4941694;28;20520;-64
2023/04/25 10:21:03;;;;;;;9.43;0.90;;;11.40;99.90;;;;;;4946122;28;20063;-64
2023/04/25 10:23:31;;;;;;;10.18;0.80;;;10.70;99.90;;;;;;4939030;28;20501;-63
2023/04/25 10:25:58;;;;;;;9.60;0.65;;;10.30;99.90;;;;;;4922564;28;20042;-64
2023/04/25 10:28:24;;;;;;;9.05;1.17;;;9.60;99.90;;;;;;4938912;28;20147;-63
2023/04/25 10:31:02;;;;;;;7.93;0.65;;;9.40;99.90;;;;;;4939493;28;20050;-63
2023/04/25 10:33:34;;;;;;;4.20;0.40;;;10.10;99.90;;;;;;4939128;28;20042;-64
2023/04/25 10:36:22;;;;;;;3.85;0.40;;;10.50;99.90;;;;;;4938327;28;20050;-63
2023/04/25 10:38:50;;;;;;;7.22;0.57;;;10.70;99.90;;;;;;4957155;28;20264;-63
2023/04/25 10:41:19;;;;;;;6.13;0.68;;;11.00;99.90;;;;;;4957173;28;20054;-64
2023/04/25 10:43:46;;;;;;;6.70;0.60;;;10.60;99.90;;;;;;4957232;28;20050;-64
2023/04/25 10:46:29;;;;;;;6.05;0.68;;;10.40;99.90;;;;;;4956728;28;20420;-64
2023/04/25 10:48:56;;;;;;;7.53;0.68;;;11.50;99.90;;;;;;4974474;28;20504;-64
2023/04/25 10:51:24;;;;;;;7.68;0.55;;;11.50;99.90;;;;;;4956191;28;20794;-64
2023/04/25 10:53:55;;;;;;;6.78;0.60;;;11.70;99.90;;;;;;4956376;28;20566;-64
2023/04/25 10:56:22;;;;;;;4.85;0.45;;;11.80;99.90;;;;;;4938191;28;20051;-64
2023/04/25 10:58:48;;;;;;;7.22;0.60;;;11.40;99.90;;;;;;4937741;28;20109;-64
2023/04/25 11:01:15;;;;;;;5.90;0.50;;;10.90;99.90;;;;;;4922361;28;20432;-64
2023/04/25 11:03:45;;;;;;;8.23;0.63;;;11.40;99.90;;;;;;4940470;28;20328;-65
2023/04/25 11:06:32;;;;;;;7.47;0.68;;;11.80;99.90;;;;;;4940046;28;20046;-65
2023/04/25 11:09:01;;;;;;;7.90;0.70;;;10.90;99.90;;;;;;4951309;28;20612;-64
2023/04/25 11:11:29;;;;;;;7.32;0.60;;;11.30;99.90;;;;;;4921392;28;20043;-64
2023/04/25 11:13:54;;;;;;;5.97;0.57;;;10.70;99.90;;;;;;4938575;28;20349;-64
2023/04/25 11:16:24;;;;;;;11.88;0.75;;;11.00;99.90;;;;;;4937724;28;20972;-64
2023/04/25 11:18:50;;;;;;;9.73;0.93;;;10.80;99.90;;;;;;4937655;28;20671;-64
2023/04/25 11:21:16;;;;;;;5.65;0.50;;;9.90;99.90;;;;;;4928994;28;20209;-64
2023/04/25 11:23:46;;;;;;;8.25;0.50;;;8.90;99.90;;;;;;4953963;28;20395;-64
2023/04/25 11:26:12;;;;;;;6.50;0.60;;;8.90;1.00;;;;;;4937954;28;20049;-64
2023/04/25 11:28:38;;;;;;;4.50;0.55;;;9.60;99.90;;;;;;4955280;28;20047;-63
2023/04/25 11:31:04;;;;;;;5.82;0.70;;;9.90;99.90;;;;;;4955580;28;20034;-64
2023/04/25 11:33:30;;;;;;;7.43;0.70;;;10.10;99.90;;;;;;4937942;28;20046;-64
2023/04/25 11:35:56;;;;;;;6.50;0.50;;;10.00;99.90;;;;;;4938061;28;20122;-64
2023/04/25 11:38:24;;;;;;;7.72;0.60;;;10.30;99.90;;;;;;4937793;28;20446;-64
2023/04/25 11:40:52;;;;;;;5.97;0.50;;;10.40;99.90;;;;;;4921587;28;20283;-64
2023/04/25 11:43:20;;;;;;;7.05;0.50;;;10.50;99.90;;;;;;4937495;28;20043;-64
2023/04/25 11:45:52;;;;;;;4.82;0.55;;;10.70;99.90;;;;;;4937673;28;20469;-64
2023/04/25 11:48:19;;;;;;;7.55;0.60;;;11.50;99.90;;;;;;4921539;28;20049;-64
2023/04/25 11:50:45;;;;;;;6.88;0.50;;;11.60;99.90;;;;;;4920911;28;20090;-65
2023/04/25 11:53:11;;;;;;;9.48;0.85;;;10.80;99.90;;;;;;4920604;28;20154;-64
2023/04/25 11:55:37;;;;;;;9.45;1.00;;;9.60;1.00;;;;;;4921949;28;20039;-64
2023/04/25 11:58:04;;;;;;;9.40;0.70;;;8.70;84.90;;;;;;4940641;28;20128;-64
2023/04/25 12:00:31;;;;;;;9.23;0.70;;;8.40;99.90;;;;;;4944439;28;20425;-64
2023/04/25 12:02:58;;;;;;;6.57;0.63;;;8.50;99.90;;;;;;4931014;28;20061;-64
2023/04/25 12:05:25;;;;;;;8.07;0.98;;;8.20;99.90;;;;;;4930258;28;20054;-64
2023/04/25 12:07:51;;;;;;;7.25;0.70;;;8.10;99.90;;;;;;4941723;28;20041;-66
2023/04/25 12:10:18;;;;;;;10.77;1.10;;;8.10;99.90;;;;;;4946313;28;20054;-64
2023/04/25 12:12:45;;;;;;;8.75;0.70;;;7.70;99.90;;;;;;4939513;28;20344;-65
2023/04/25 12:15:19;;;;;;;8.25;0.70;;;7.70;99.90;;;;;;4945010;28;20039;-64
2023/04/25 12:17:46;;;;;;;7.60;0.93;;;8.70;99.90;;;;;;4935362;28;20050;-65
2023/04/25 12:20:17;;;;;;;9.68;0.70;;;9.60;99.90;;;;;;4937787;28;20637;-65
2023/04/25 12:22:46;;;;;;;9.52;0.80;;;10.30;99.90;;;;;;4900351;29;20055;-65
2023/04/25 12:25:31;;;;;;;8.00;0.95;;;10.40;99.90;;;;;;4921245;29;20110;-65
2023/04/25 12:28:13;;;;;;;8.60;1.23;;;10.50;99.90;;;;;;4917611;29;20086;-65
2023/04/25 12:30:58;;;;;;;7.32;0.77;;;11.30;99.90;;;;;;4918774;29;20043;-65
2023/04/25 12:33:26;;;;;;;9.85;0.60;;;10.60;1.00;;;;;;4915033;29;20044;-64
2023/04/25 12:35:53;;;;;;;10.75;0.80;;;11.10;1.00;;;;;;4913920;29;20457;-65
2023/04/25 12:38:26;;;;;;;7.15;0.52;;;10.20;99.90;;;;;;4913122;29;20927;-65
2023/04/25 12:40:53;;;;;;;7.78;0.55;;;10.00;99.90;;;;;;4913018;29;20122;-64
2023/04/25 12:43:20;;;;;;;6.43;0.63;;;10.20;99.90;;;;;;4897322;29;20380;-64
2023/04/25 12:45:50;;;;;;;12.05;0.77;;;10.70;99.90;;;;;;4914046;29;20055;-64
2023/04/25 12:48:16;;;;;;;6.97;0.60;;;10.60;99.90;;;;;;4913652;29;20414;-64
2023/04/25 12:50:43;;;;;;;6.38;0.90;;;11.40;99.90;;;;;;4913656;29;20048;-64